createdAt,value
2019-05-01T00:00:15.946Z,54.33
2019-05-01T00:01:08.505Z,55.99
2019-05-01T00:02:07.489Z,56.09
2019-05-01T00:03:07.485Z,56.52
2019-05-01T00:04:07.497Z,57.64
2019-05-01T00:05:07.457Z,57.23
2019-05-01T00:06:07.444Z,57.13
2019-05-01T00:08:08.433Z,57.23
2019-05-01T00:09:07.461Z,57.23
2019-05-01T00:10:07.404Z,56.93
2019-05-01T00:11:07.392Z,57.03
2019-05-01T00:12:07.387Z,58.45
2019-05-01T00:13:07.380Z,58.56
2019-05-01T00:14:07.386Z,59.06
2019-05-01T00:15:07.357Z,60.99
2019-05-01T00:16:07.337Z,61.33
2019-05-01T00:18:08.539Z,62.96
2019-05-01T00:19:07.493Z,62.75
2019-05-01T00:20:07.493Z,62.88
2019-05-01T00:21:07.443Z,62.78
2019-05-01T00:22:07.451Z,64.92
2019-05-01T00:23:07.453Z,63.70
2019-05-01T00:24:07.279Z,63.39
2019-05-01T00:25:07.231Z,63.19
2019-05-01T00:26:07.218Z,64.51
2019-05-01T00:27:07.205Z,64.31
2019-05-01T00:28:07.197Z,64.72
2019-05-01T00:29:07.215Z,64.41
2019-05-01T00:30:07.187Z,65.12
2019-05-01T00:31:07.171Z,65.53
2019-05-01T00:32:07.159Z,65.43
2019-05-01T00:33:07.143Z,65.12
2019-05-01T00:34:07.131Z,65.12
2019-05-01T00:35:07.135Z,65.12
2019-05-01T00:36:07.110Z,65.22
2019-05-01T00:37:07.108Z,65.63
2019-05-01T00:38:07.105Z,66.44
2019-05-01T00:39:07.082Z,65.83
2019-05-01T00:40:07.079Z,65.83
2019-05-01T00:41:07.077Z,65.53
2019-05-01T00:42:07.051Z,65.12
2019-05-01T00:43:07.038Z,65.43
2019-05-01T00:44:07.020Z,65.36
2019-05-01T00:45:07.030Z,65.63
2019-05-01T00:46:07.005Z,65.22
2019-05-01T00:47:07.001Z,65.22
2019-05-01T00:48:06.983Z,65.22
2019-05-01T00:49:06.973Z,65.02
2019-05-01T00:50:06.978Z,65.43
2019-05-01T00:51:06.946Z,64.81
2019-05-01T00:52:06.934Z,65.73
2019-05-01T00:53:06.931Z,65.53
2019-05-01T00:54:06.915Z,65.43
2019-05-01T00:55:06.934Z,65.43
2019-05-01T00:56:06.895Z,65.12
2019-05-01T00:57:06.893Z,65.33
2019-05-01T00:58:06.885Z,65.43
2019-05-01T00:59:06.866Z,65.22
2019-05-01T01:00:06.923Z,65.63
2019-05-01T01:01:06.836Z,65.63
2019-05-01T01:02:06.832Z,65.53
2019-05-01T01:03:06.816Z,65.43
2019-05-01T01:04:06.806Z,65.73
2019-05-01T01:05:06.793Z,65.83
2019-05-01T01:06:06.818Z,65.63
2019-05-01T01:07:06.792Z,66.24
2019-05-01T01:08:06.769Z,66.04
2019-05-01T01:09:06.764Z,66.44
2019-05-01T01:10:06.753Z,66.75
2019-05-01T01:11:06.744Z,66.85
2019-05-01T01:12:06.728Z,66.14
2019-05-01T01:13:06.705Z,66.14
2019-05-01T01:14:06.698Z,66.35
2019-05-01T01:15:06.686Z,66.35
2019-05-01T01:16:06.696Z,66.85
2019-05-01T01:17:06.680Z,67.36
2019-05-01T01:18:06.649Z,66.75
2019-05-01T01:19:06.643Z,67.36
2019-05-01T01:20:06.630Z,66.85
2019-05-01T01:21:06.638Z,66.78
2019-05-01T01:22:06.614Z,67.26
2019-05-01T01:23:06.637Z,66.96
2019-05-01T01:24:06.588Z,67.05
2019-05-01T01:25:06.577Z,67.05
2019-05-01T01:26:06.587Z,67.26
2019-05-01T01:27:06.563Z,67.29
2019-05-01T01:28:06.543Z,67.26
2019-05-01T01:29:06.543Z,67.26
2019-05-01T01:30:07.444Z,66.96
2019-05-01T01:31:06.527Z,67.19
2019-05-01T01:32:06.497Z,67.16
2019-05-01T01:33:06.490Z,67.16
2019-05-01T01:34:06.481Z,67.16
2019-05-01T01:35:06.477Z,67.16
2019-05-01T01:36:06.485Z,67.46
2019-05-01T01:37:06.442Z,67.26
2019-05-01T01:38:06.432Z,67.77
2019-05-01T01:39:06.426Z,67.66
2019-05-01T01:40:06.414Z,67.87
2019-05-01T01:41:06.422Z,67.80
2019-05-01T01:42:06.393Z,67.36
2019-05-01T01:43:06.380Z,68.79
2019-05-01T01:44:06.381Z,68.48
2019-05-01T01:45:06.365Z,68.27
2019-05-01T01:46:06.366Z,68.68
2019-05-01T01:47:06.337Z,67.97
2019-05-01T01:48:06.328Z,68.38
2019-05-01T01:49:06.314Z,68.48
2019-05-01T01:50:06.297Z,68.79
2019-05-01T01:51:06.320Z,69.09
2019-05-01T01:52:06.288Z,68.99
2019-05-01T01:53:06.281Z,68.18
2019-05-01T01:54:06.259Z,68.88
2019-05-01T01:55:06.243Z,69.09
2019-05-01T01:56:06.263Z,69.09
2019-05-01T01:57:06.234Z,69.60
2019-05-01T01:58:06.219Z,69.70
2019-05-01T01:59:06.202Z,70.01
2019-05-01T02:00:06.189Z,70.21
2019-05-01T02:01:09.517Z,70.01
2019-05-01T02:02:06.173Z,70.34
2019-05-01T02:03:06.165Z,70.24
2019-05-01T02:04:06.149Z,70.10
2019-05-01T02:05:06.140Z,69.84
2019-05-01T02:06:06.144Z,70.51
2019-05-01T02:07:06.120Z,70.31
2019-05-01T02:08:08.858Z,70.14
2019-05-01T02:09:06.102Z,70.55
2019-05-01T02:10:06.108Z,70.55
2019-05-01T02:11:06.097Z,70.95
2019-05-01T02:12:06.058Z,70.86
2019-05-01T02:13:06.052Z,70.51
2019-05-01T02:14:06.049Z,70.92
2019-05-01T02:15:06.039Z,70.92
2019-05-01T02:16:06.039Z,70.41
2019-05-01T02:17:06.026Z,70.65
2019-05-01T02:18:05.996Z,71.16
2019-05-01T02:19:05.994Z,70.86
2019-05-01T02:20:05.987Z,70.86
2019-05-01T02:21:05.962Z,70.95
2019-05-01T02:22:05.990Z,70.95
2019-05-01T02:23:05.940Z,70.86
2019-05-01T02:24:05.939Z,71.56
2019-05-01T02:25:05.926Z,71.67
2019-05-01T02:26:05.915Z,71.26
2019-05-01T02:27:05.926Z,71.87
2019-05-01T02:28:06.450Z,71.67
2019-05-01T02:29:05.884Z,71.60
2019-05-01T02:30:05.867Z,72.21
2019-05-01T02:31:05.861Z,71.91
2019-05-01T02:32:05.861Z,71.80
2019-05-01T02:33:05.836Z,72.48
2019-05-01T02:34:05.827Z,72.21
2019-05-01T02:35:05.823Z,72.52
2019-05-01T02:36:05.799Z,72.82
2019-05-01T02:37:05.810Z,72.62
2019-05-01T02:38:05.779Z,72.31
2019-05-01T02:39:05.768Z,72.78
2019-05-01T02:40:05.764Z,72.92
2019-05-01T02:41:05.759Z,72.82
2019-05-01T02:42:05.763Z,73.13
2019-05-01T02:43:05.738Z,73.54
2019-05-01T02:44:05.716Z,73.43
2019-05-01T02:45:05.704Z,73.43
2019-05-01T02:46:05.693Z,73.33
2019-05-01T02:47:05.705Z,73.64
2019-05-01T02:48:05.680Z,73.64
2019-05-01T02:49:05.685Z,73.64
2019-05-01T02:50:05.660Z,73.84
2019-05-01T02:51:05.640Z,74.15
2019-05-01T02:52:05.667Z,74.04
2019-05-01T02:53:05.623Z,74.25
2019-05-01T02:54:05.609Z,74.65
2019-05-01T02:55:05.594Z,74.45
2019-05-01T02:56:05.584Z,75.06
2019-05-01T02:57:05.596Z,75.30
2019-05-01T02:58:05.592Z,75.10
2019-05-01T02:59:05.551Z,75.40
2019-05-01T03:00:05.558Z,75.71
2019-05-01T03:01:05.541Z,76.53
2019-05-01T03:02:05.561Z,76.39
2019-05-01T03:03:05.576Z,76.62
2019-05-01T03:04:05.632Z,77.03
2019-05-01T03:05:05.487Z,76.87
2019-05-01T03:06:05.484Z,77.17
2019-05-01T03:07:05.474Z,76.97
2019-05-01T03:08:05.482Z,77.27
2019-05-01T03:09:05.443Z,76.97
2019-05-01T03:10:09.369Z,77.03
2019-05-01T03:11:05.478Z,77.48
2019-05-01T03:12:05.423Z,77.07
2019-05-01T03:13:05.453Z,76.66
2019-05-01T03:14:05.400Z,76.93
2019-05-01T03:15:05.416Z,77.07
2019-05-01T03:16:05.369Z,76.87
2019-05-01T03:17:05.365Z,76.87
2019-05-01T03:18:05.373Z,76.76
2019-05-01T03:19:05.342Z,76.87
2019-05-01T03:20:05.330Z,76.87
2019-05-01T03:21:05.329Z,76.76
2019-05-01T03:22:05.303Z,78.19
2019-05-01T03:23:05.314Z,79.41
2019-05-01T03:24:05.285Z,79.41
2019-05-01T03:25:05.268Z,78.84
2019-05-01T03:26:05.260Z,79.75
2019-05-01T03:27:05.253Z,79.75
2019-05-01T03:28:05.269Z,80.07
2019-05-01T03:29:05.241Z,79.96
2019-05-01T03:30:05.217Z,80.30
2019-05-01T03:31:05.211Z,79.90
2019-05-01T03:32:17.258Z,79.69
2019-05-01T03:33:06.196Z,84.18
2019-05-01T03:34:05.182Z,86.88
2019-05-01T03:35:05.163Z,88.24
2019-05-01T03:36:05.149Z,89.92
2019-05-01T03:37:05.140Z,90.99
2019-05-01T03:38:05.143Z,90.99
2019-05-01T03:39:05.121Z,90.78
2019-05-01T03:40:05.121Z,92.01
2019-05-01T03:41:05.096Z,91.19
2019-05-01T03:42:05.083Z,91.54
2019-05-01T03:43:05.090Z,91.33
2019-05-01T03:44:05.068Z,91.39
2019-05-01T03:45:05.056Z,91.23
2019-05-01T03:46:05.051Z,91.33
2019-05-01T03:47:05.041Z,91.44
2019-05-01T03:48:05.043Z,90.58
2019-05-01T03:49:05.144Z,90.58
2019-05-01T03:50:04.998Z,90.62
2019-05-01T03:51:04.995Z,89.80
2019-05-01T03:52:04.984Z,89.97
2019-05-01T03:53:04.965Z,89.97
2019-05-01T03:54:04.965Z,90.00
2019-05-01T03:55:04.948Z,89.80
2019-05-01T03:56:04.934Z,89.86
2019-05-01T03:57:04.925Z,89.86
2019-05-01T03:58:04.922Z,89.76
2019-05-01T03:59:04.941Z,89.80
2019-05-01T04:00:04.891Z,89.04
2019-05-01T04:01:04.887Z,89.45
2019-05-01T04:02:04.868Z,89.25
2019-05-01T04:03:04.917Z,89.65
2019-05-01T04:04:04.867Z,89.86
2019-05-01T04:05:04.835Z,88.74
2019-05-01T04:06:04.870Z,88.43
2019-05-01T04:07:04.823Z,88.43
2019-05-01T04:08:04.810Z,88.43
2019-05-01T04:09:04.806Z,88.43
2019-05-01T04:10:04.786Z,87.61
2019-05-01T04:11:04.768Z,87.71
2019-05-01T04:12:04.766Z,87.67
2019-05-01T04:13:04.748Z,87.88
2019-05-01T04:14:04.751Z,87.98
2019-05-01T04:15:04.724Z,87.16
2019-05-01T04:16:04.778Z,87.47
2019-05-01T04:17:04.720Z,87.37
2019-05-01T04:18:04.708Z,86.96
2019-05-01T04:19:04.705Z,87.37
2019-05-01T04:20:04.678Z,86.76
2019-05-01T04:21:04.677Z,86.85
2019-05-01T04:22:04.648Z,86.96
2019-05-01T04:23:04.640Z,86.35
2019-05-01T04:24:04.689Z,86.96
2019-05-01T04:25:04.623Z,87.37
2019-05-01T04:26:04.611Z,86.76
2019-05-01T04:27:04.595Z,86.91
2019-05-01T04:28:04.590Z,86.96
2019-05-01T04:29:04.597Z,86.41
2019-05-01T04:30:04.569Z,86.10
2019-05-01T04:31:04.553Z,86.76
2019-05-01T04:32:04.542Z,86.65
2019-05-01T04:33:04.528Z,86.65
2019-05-01T04:34:04.517Z,86.00
2019-05-01T04:35:04.525Z,86.85
2019-05-01T04:36:04.497Z,86.65
2019-05-01T04:37:04.491Z,85.94
2019-05-01T04:38:04.492Z,86.44
2019-05-01T04:39:04.468Z,86.44
2019-05-01T04:40:04.489Z,86.76
2019-05-01T04:41:04.439Z,86.41
2019-05-01T04:42:04.440Z,86.96
2019-05-01T04:43:04.428Z,85.53
2019-05-01T04:44:04.424Z,85.73
2019-05-01T04:45:04.421Z,86.55
2019-05-01T04:46:04.385Z,86.44
2019-05-01T04:47:04.372Z,85.59
2019-05-01T04:48:04.366Z,85.59
2019-05-01T04:49:04.352Z,85.63
2019-05-01T04:50:04.361Z,85.42
2019-05-01T04:51:04.330Z,85.32
2019-05-01T04:52:04.322Z,85.32
2019-05-01T04:53:04.309Z,85.02
2019-05-01T04:54:04.303Z,85.32
2019-05-01T04:55:04.343Z,85.32
2019-05-01T04:56:04.274Z,85.63
2019-05-01T04:57:04.295Z,85.12
2019-05-01T04:58:04.258Z,85.32
2019-05-01T04:59:04.246Z,85.32
2019-05-01T05:00:04.268Z,85.32
2019-05-01T05:01:04.224Z,85.02
2019-05-01T05:02:04.216Z,85.22
2019-05-01T05:03:05.356Z,85.22
2019-05-01T05:04:04.189Z,85.32
2019-05-01T05:05:04.215Z,85.53
2019-05-01T05:06:04.203Z,85.53
2019-05-01T05:07:04.161Z,85.02
2019-05-01T05:08:04.147Z,85.53
2019-05-01T05:09:04.132Z,85.63
2019-05-01T05:10:04.142Z,85.53
2019-05-01T05:11:04.117Z,85.53
2019-05-01T05:12:04.101Z,85.18
2019-05-01T05:13:04.103Z,85.42
2019-05-01T05:14:04.075Z,85.12
2019-05-01T05:15:04.101Z,84.81
2019-05-01T05:16:04.062Z,84.50
2019-05-01T05:17:04.049Z,84.61
2019-05-01T05:18:04.037Z,84.47
2019-05-01T05:19:04.022Z,84.47
2019-05-01T05:20:04.043Z,84.57
2019-05-01T05:21:04.031Z,83.75
2019-05-01T05:22:03.995Z,84.06
2019-05-01T05:23:03.984Z,84.57
2019-05-01T05:24:03.972Z,83.85
2019-05-01T05:25:03.962Z,83.54
2019-05-01T05:26:03.968Z,83.44
2019-05-01T05:27:03.942Z,83.65
2019-05-01T05:28:03.931Z,83.44
2019-05-01T05:29:03.936Z,83.34
2019-05-01T05:30:03.921Z,83.24
2019-05-01T05:31:03.920Z,83.92
2019-05-01T05:32:03.886Z,83.92
2019-05-01T05:33:03.872Z,83.92
2019-05-01T05:34:03.882Z,83.81
2019-05-01T05:35:03.856Z,83.40
2019-05-01T05:36:03.856Z,82.79
2019-05-01T05:37:03.827Z,82.18
2019-05-01T05:38:03.820Z,82.14
2019-05-01T05:39:03.817Z,82.28
2019-05-01T05:40:03.815Z,82.39
2019-05-01T05:41:03.819Z,82.18
2019-05-01T05:42:03.779Z,81.94
2019-05-01T05:43:03.766Z,82.24
2019-05-01T05:44:03.755Z,81.73
2019-05-01T05:45:03.768Z,81.94
2019-05-01T05:46:03.751Z,81.94
2019-05-01T05:47:03.743Z,81.70
2019-05-01T05:48:03.707Z,81.32
2019-05-01T05:49:03.726Z,81.53
2019-05-01T05:50:03.760Z,81.53
2019-05-01T05:51:03.694Z,81.49
2019-05-01T05:52:03.663Z,81.29
2019-05-01T05:53:03.653Z,81.29
2019-05-01T05:54:03.647Z,81.39
2019-05-01T05:55:03.654Z,80.16
2019-05-01T05:56:03.631Z,81.59
2019-05-01T05:57:03.638Z,80.41
2019-05-01T05:58:03.600Z,80.30
2019-05-01T05:59:03.596Z,80.61
2019-05-01T06:00:03.581Z,80.71
2019-05-01T06:01:03.566Z,80.10
2019-05-01T06:02:03.578Z,79.80
2019-05-01T06:03:03.567Z,80.24
2019-05-01T06:04:03.536Z,80.20
2019-05-01T06:05:03.541Z,80.14
2019-05-01T06:06:03.523Z,80.00
2019-05-01T06:07:03.623Z,80.61
2019-05-01T06:08:03.495Z,80.82
2019-05-01T06:09:03.479Z,80.14
2019-05-01T06:10:03.471Z,80.14
2019-05-01T06:11:03.480Z,80.58
2019-05-01T06:12:04.989Z,80.99
2019-05-01T06:13:04.459Z,80.69
2019-05-01T06:14:03.434Z,80.07
2019-05-01T06:15:06.446Z,80.28
2019-05-01T06:16:03.405Z,79.73
2019-05-01T06:17:03.397Z,79.32
2019-05-01T06:18:04.134Z,79.52
2019-05-01T06:19:03.372Z,79.43
2019-05-01T06:20:03.359Z,79.46
2019-05-01T06:21:03.945Z,79.46
2019-05-01T06:22:05.007Z,79.66
2019-05-01T06:23:04.349Z,78.85
2019-05-01T06:24:06.624Z,80.28
2019-05-01T06:25:03.329Z,79.66
2019-05-01T06:26:03.346Z,80.07
2019-05-01T06:27:03.280Z,79.36
2019-05-01T06:28:03.275Z,79.05
2019-05-01T06:29:03.295Z,79.46
2019-05-01T06:30:06.622Z,79.16
2019-05-01T06:31:04.243Z,79.43
2019-05-01T06:32:03.231Z,79.02
2019-05-01T06:33:04.160Z,78.30
2019-05-01T06:34:04.233Z,78.41
2019-05-01T06:35:04.586Z,78.27
2019-05-01T06:36:03.184Z,77.25
2019-05-01T06:37:03.172Z,77.00
2019-05-01T06:38:03.171Z,76.90
2019-05-01T06:39:06.798Z,76.56
2019-05-01T06:40:04.157Z,76.15
2019-05-01T06:41:03.135Z,75.64
2019-05-01T06:42:03.123Z,75.64
2019-05-01T06:43:03.112Z,75.85
2019-05-01T06:44:04.122Z,75.88
2019-05-01T06:45:03.086Z,76.39
2019-05-01T06:46:03.094Z,76.70
2019-05-01T06:47:04.968Z,76.39
2019-05-01T06:48:03.057Z,76.39
2019-05-01T06:49:03.051Z,76.22
2019-05-01T06:50:05.908Z,77.04
2019-05-01T06:51:03.029Z,77.18
2019-05-01T06:52:03.010Z,77.38
2019-05-01T06:53:04.602Z,78.34
2019-05-01T06:54:02.998Z,78.44
2019-05-01T06:55:02.994Z,78.23
2019-05-01T06:56:02.972Z,79.43
2019-05-01T06:57:02.961Z,79.43
2019-05-01T06:58:02.944Z,79.46
2019-05-01T06:59:02.935Z,78.85
2019-05-01T07:00:07.620Z,79.66
2019-05-01T07:01:03.914Z,79.70
2019-05-01T07:02:02.906Z,80.11
2019-05-01T07:03:05.972Z,80.21
2019-05-01T07:04:04.109Z,79.91
2019-05-01T07:05:02.894Z,79.70
2019-05-01T07:06:13.829Z,79.46
2019-05-01T07:07:06.725Z,78.64
2019-05-01T07:08:02.836Z,79.46
2019-05-01T07:09:07.013Z,79.05
2019-05-01T07:10:03.850Z,78.75
2019-05-01T07:11:02.802Z,78.30
2019-05-01T07:12:02.809Z,78.50
2019-05-01T07:13:04.862Z,77.59
2019-05-01T07:14:02.778Z,77.69
2019-05-01T07:15:02.768Z,77.86
2019-05-01T07:16:03.280Z,77.04
2019-05-01T07:17:02.740Z,77.04
2019-05-01T07:18:02.727Z,78.88
2019-05-01T07:19:05.783Z,83.92
2019-05-01T07:20:02.713Z,84.77
2019-05-01T07:21:02.752Z,85.12
2019-05-01T07:22:06.364Z,86.59
2019-05-01T07:23:02.675Z,85.77
2019-05-01T07:24:02.697Z,85.71
2019-05-01T07:25:03.904Z,86.49
2019-05-01T07:26:02.666Z,85.97
2019-05-01T07:27:03.043Z,86.69
2019-05-01T07:28:02.614Z,86.94
2019-05-01T07:29:06.047Z,86.79
2019-05-01T07:30:03.602Z,86.49
2019-05-01T07:31:05.024Z,86.18
2019-05-01T07:32:06.382Z,86.69
2019-05-01T07:33:02.562Z,86.79
2019-05-01T07:34:02.554Z,86.29
2019-05-01T07:35:03.970Z,86.49
2019-05-01T07:36:02.531Z,85.06
2019-05-01T07:37:02.538Z,85.53
2019-05-01T07:38:03.457Z,84.61
2019-05-01T07:39:02.507Z,84.71
2019-05-01T07:40:02.487Z,85.22
2019-05-01T07:41:03.367Z,84.61
2019-05-01T07:42:02.486Z,83.79
2019-05-01T07:43:02.452Z,84.00
2019-05-01T07:44:02.447Z,83.34
2019-05-01T07:45:03.764Z,83.34
2019-05-01T07:46:03.428Z,84.09
2019-05-01T07:47:02.439Z,84.06
2019-05-01T07:48:05.644Z,83.85
2019-05-01T07:49:02.398Z,82.59
2019-05-01T07:50:02.389Z,81.77
2019-05-01T07:51:07.131Z,82.69
2019-05-01T07:52:03.389Z,81.63
2019-05-01T07:53:02.354Z,81.63
2019-05-01T07:54:04.027Z,80.57
2019-05-01T07:55:02.321Z,79.90
2019-05-01T07:56:02.319Z,79.45
2019-05-01T07:57:03.251Z,78.84
2019-05-01T07:58:02.306Z,79.14
2019-05-01T07:59:02.282Z,78.09
2019-05-01T08:00:03.702Z,77.89
2019-05-01T08:01:02.262Z,78.50
2019-05-01T08:02:02.269Z,77.24
2019-05-01T08:03:02.577Z,78.16
2019-05-01T08:04:02.227Z,77.34
2019-05-01T08:05:04.916Z,77.89
2019-05-01T08:06:03.207Z,77.11
2019-05-01T08:07:02.197Z,77.41
2019-05-01T08:08:02.832Z,77.82
2019-05-01T08:09:02.173Z,77.51
2019-05-01T08:10:02.162Z,78.27
2019-05-01T08:11:05.342Z,78.47
2019-05-01T08:12:03.149Z,77.72
2019-05-01T08:13:02.200Z,77.51
2019-05-01T08:14:07.525Z,77.51
2019-05-01T08:15:03.106Z,77.31
2019-05-01T08:16:06.948Z,77.07
2019-05-01T08:17:03.092Z,76.97
2019-05-01T08:18:02.095Z,76.90
2019-05-01T08:19:04.019Z,77.31
2019-05-01T08:20:02.051Z,77.82
2019-05-01T08:21:02.040Z,77.31
2019-05-01T08:22:03.022Z,77.17
2019-05-01T08:23:02.043Z,76.83
2019-05-01T08:24:02.031Z,76.42
2019-05-01T08:25:01.992Z,76.01
2019-05-01T08:26:03.884Z,75.78
2019-05-01T08:27:02.984Z,75.33
2019-05-01T08:28:01.995Z,75.16
2019-05-01T08:29:03.003Z,75.47
2019-05-01T08:30:01.959Z,74.96
2019-05-01T08:31:01.961Z,75.37
2019-05-01T08:32:03.384Z,74.45
2019-05-01T08:33:01.937Z,74.41
2019-05-01T08:34:01.912Z,74.11
2019-05-01T08:35:02.493Z,72.86
2019-05-01T08:36:01.902Z,73.57
2019-05-01T08:37:01.863Z,73.02
2019-05-01T08:38:01.860Z,73.23
2019-05-01T08:39:04.884Z,72.31
2019-05-01T08:40:02.881Z,71.70
2019-05-01T08:41:01.826Z,72.34
2019-05-01T08:42:03.113Z,73.10
2019-05-01T08:43:01.818Z,73.50
2019-05-01T08:44:01.816Z,72.99
2019-05-01T08:45:05.283Z,72.25
2019-05-01T08:46:02.783Z,73.06
2019-05-01T08:47:01.751Z,72.31
2019-05-01T08:48:01.746Z,71.60
2019-05-01T08:49:01.746Z,71.50
2019-05-01T08:50:01.722Z,71.40
2019-05-01T08:51:01.719Z,71.30
2019-05-01T08:52:04.708Z,70.65
2019-05-01T08:53:02.759Z,70.04
2019-05-01T08:54:01.711Z,69.94
2019-05-01T08:55:04.318Z,70.25
2019-05-01T08:56:02.653Z,69.33
2019-05-01T08:57:01.655Z,69.64
2019-05-01T08:58:01.677Z,70.14
2019-05-01T08:59:01.631Z,68.92
2019-05-01T09:00:01.835Z,69.67
2019-05-01T09:01:01.603Z,69.84
2019-05-01T09:02:09.590Z,69.33
2019-05-01T09:03:08.468Z,68.69
2019-05-01T09:04:12.298Z,68.89
2019-05-01T09:05:02.913Z,69.30
2019-05-01T09:06:01.559Z,68.66
2019-05-01T09:07:01.539Z,68.55
2019-05-01T09:08:01.531Z,70.21
2019-05-01T09:09:03.077Z,69.53
2019-05-01T09:10:02.539Z,70.62
2019-05-01T09:11:02.257Z,70.31
2019-05-01T09:12:01.475Z,70.72
2019-05-01T09:13:01.465Z,70.62
2019-05-01T09:14:01.454Z,70.62
2019-05-01T09:15:01.471Z,71.03
2019-05-01T09:16:01.448Z,70.72
2019-05-01T09:17:01.429Z,71.03
2019-05-01T09:18:01.421Z,70.45
2019-05-01T09:19:01.434Z,71.12
2019-05-01T09:20:01.419Z,70.21
2019-05-01T09:21:01.404Z,69.81
2019-05-01T09:22:01.372Z,69.81
2019-05-01T09:23:01.359Z,70.01
2019-05-01T09:24:01.346Z,70.01
2019-05-01T09:25:01.894Z,69.40
2019-05-01T09:26:01.339Z,68.59
2019-05-01T09:27:01.418Z,69.20
2019-05-01T09:31:17.875Z,68.72
2019-05-01T09:32:18.805Z,68.92
2019-05-01T09:33:17.778Z,68.92
2019-05-01T09:34:19.103Z,68.82
2019-05-01T09:35:19.663Z,67.91
2019-05-01T09:36:17.705Z,68.32
2019-05-01T09:37:17.711Z,68.11
2019-05-01T09:38:17.703Z,67.57
2019-05-01T09:39:17.713Z,67.57
2019-05-01T09:40:17.676Z,66.93
2019-05-01T09:41:17.667Z,67.54
2019-05-01T09:42:22.715Z,66.72
2019-05-01T09:43:18.631Z,66.69
2019-05-01T09:44:17.617Z,66.39
2019-05-01T09:45:17.635Z,66.29
2019-05-01T09:46:17.599Z,66.39
2019-05-01T09:47:18.486Z,66.08
2019-05-01T09:48:17.581Z,66.83
2019-05-01T09:49:18.289Z,67.10
2019-05-01T09:50:17.599Z,66.36
2019-05-01T09:51:17.568Z,66.26
2019-05-01T09:52:18.940Z,66.26
2019-05-01T09:54:28.547Z,65.11
2019-05-01T09:55:28.519Z,65.42
2019-05-01T09:56:28.528Z,64.37
2019-05-01T09:57:29.041Z,63.96
2019-05-01T09:58:28.490Z,63.93
2019-05-01T09:59:28.475Z,63.43
2019-05-01T10:00:28.460Z,62.08
2019-05-01T10:01:31.888Z,62.49
2019-05-01T10:02:28.471Z,62.05
2019-05-01T10:03:28.439Z,61.47
2019-05-01T10:04:30.287Z,62.38
2019-05-01T10:05:29.330Z,62.79
2019-05-01T10:06:28.396Z,62.72
2019-05-01T10:07:28.831Z,63.53
2019-05-01T10:08:28.508Z,62.72
2019-05-01T10:09:28.369Z,62.99
2019-05-01T10:10:29.230Z,62.85
2019-05-01T10:11:28.470Z,63.86
2019-05-01T10:12:28.372Z,64.47
2019-05-01T10:13:28.322Z,63.96
2019-05-01T10:14:31.607Z,63.93
2019-05-01T10:15:29.322Z,64.04
2019-05-01T10:16:28.294Z,64.67
2019-05-01T10:17:28.296Z,64.20
2019-05-01T10:18:28.533Z,65.42
2019-05-01T10:19:28.261Z,64.94
2019-05-01T10:20:28.250Z,65.04
2019-05-01T10:21:28.939Z,65.34
2019-05-01T10:22:28.242Z,65.24
2019-05-01T10:23:28.240Z,65.24
2019-05-01T10:24:32.245Z,65.21
2019-05-01T10:25:29.206Z,65.11
2019-05-01T10:26:28.192Z,64.84
2019-05-01T10:27:30.876Z,65.48
2019-05-01T10:28:29.200Z,65.14
2019-05-01T10:29:28.155Z,65.04
2019-05-01T10:30:31.662Z,64.81
2019-05-01T10:31:29.138Z,64.81
2019-05-01T10:32:28.127Z,64.50
2019-05-01T10:33:29.000Z,64.47
2019-05-01T10:34:28.116Z,62.82
2019-05-01T10:35:28.085Z,62.79
2019-05-01T10:36:28.093Z,62.69
2019-05-01T10:37:33.122Z,62.26
2019-05-01T10:38:29.055Z,62.05
2019-05-01T10:39:30.188Z,61.14
2019-05-01T10:40:32.363Z,61.21
2019-05-01T10:41:29.025Z,60.25
2019-05-01T10:42:28.009Z,59.34
2019-05-01T10:43:28.006Z,58.83
2019-05-01T10:44:28.013Z,58.33
2019-05-01T10:45:27.979Z,58.43
2019-05-01T10:46:27.989Z,58.33
2019-05-01T10:47:27.961Z,58.45
2019-05-01T10:48:27.949Z,59.06
2019-05-01T10:49:27.950Z,58.86
2019-05-01T10:50:27.927Z,58.96
2019-05-01T10:51:27.917Z,58.45
2019-05-01T10:52:27.903Z,58.33
2019-05-01T10:53:27.897Z,58.56
2019-05-01T10:54:27.902Z,58.36
2019-05-01T10:55:27.875Z,58.25
2019-05-01T10:56:27.862Z,58.33
2019-05-01T10:57:27.861Z,57.42
2019-05-01T10:58:27.839Z,57.82
2019-05-01T10:59:27.863Z,58.02
2019-05-01T11:00:27.823Z,58.00
2019-05-01T11:01:27.814Z,57.89
2019-05-01T11:02:27.800Z,58.02
2019-05-01T11:03:27.785Z,58.20
2019-05-01T11:04:27.794Z,57.52
2019-05-01T11:05:27.770Z,57.69
2019-05-01T11:06:27.765Z,57.59
2019-05-01T11:07:27.751Z,57.89
2019-05-01T11:08:27.733Z,57.62
2019-05-01T11:09:27.741Z,58.63
2019-05-01T11:10:27.712Z,58.23
2019-05-01T11:11:27.715Z,58.63
2019-05-01T11:12:27.696Z,57.39
2019-05-01T11:13:27.680Z,56.52
2019-05-01T11:14:27.737Z,55.66
2019-05-01T11:15:27.656Z,55.16
2019-05-01T11:16:27.651Z,55.19
2019-05-01T11:17:27.639Z,53.98
2019-05-01T11:18:27.643Z,53.42
2019-05-01T11:19:29.622Z,52.57
2019-05-01T11:20:27.620Z,51.11
2019-05-01T11:21:27.592Z,52.57
2019-05-01T11:22:27.591Z,53.42
2019-05-01T11:23:27.580Z,54.05
2019-05-01T11:24:27.581Z,53.65
2019-05-01T11:25:27.556Z,54.58
2019-05-01T11:26:27.547Z,55.16
2019-05-01T11:27:27.548Z,54.46
2019-05-01T11:28:27.518Z,53.32
2019-05-01T11:29:27.538Z,53.25
2019-05-01T11:30:27.557Z,52.24
2019-05-01T11:31:27.491Z,51.86
2019-05-01T11:32:27.506Z,53.05
2019-05-01T11:33:27.474Z,52.64
2019-05-01T11:34:27.508Z,51.99
2019-05-01T11:35:27.452Z,52.59
2019-05-01T11:36:27.442Z,51.01
2019-05-01T11:37:27.428Z,49.57
2019-05-01T11:38:27.444Z,49.10
2019-05-01T11:39:27.427Z,50.63
2019-05-01T11:40:27.395Z,50.96
2019-05-01T11:41:27.391Z,50.76
2019-05-01T11:42:27.372Z,51.14
2019-05-01T11:43:27.365Z,50.08
2019-05-01T11:44:27.377Z,49.70
2019-05-01T11:45:27.346Z,50.53
2019-05-01T11:46:27.339Z,51.71
2019-05-01T11:47:27.332Z,50.58
2019-05-01T11:48:30.289Z,48.80
2019-05-01T11:49:27.339Z,47.33
2019-05-01T11:50:27.287Z,46.81
2019-05-01T11:51:27.300Z,47.15
2019-05-01T11:52:27.281Z,48.00
2019-05-01T11:53:27.266Z,49.25
2019-05-01T11:54:27.258Z,49.77
2019-05-01T11:55:27.237Z,49.37
2019-05-01T11:56:27.243Z,51.41
2019-05-01T11:57:27.229Z,49.65
2019-05-01T11:58:27.208Z,49.85
2019-05-01T11:59:27.199Z,48.68
2019-05-01T12:00:27.187Z,48.38
2019-05-01T12:01:27.192Z,46.62
2019-05-01T12:02:27.164Z,46.38
2019-05-01T12:03:27.165Z,45.86
2019-05-01T12:04:27.149Z,45.01
2019-05-01T12:05:27.143Z,46.11
2019-05-01T12:06:27.153Z,46.58
2019-05-01T12:07:27.116Z,44.76
2019-05-01T12:08:27.123Z,45.34
2019-05-01T12:09:27.094Z,44.92
2019-05-01T12:10:27.086Z,45.31
2019-05-01T12:11:27.104Z,45.12
2019-05-01T12:12:27.063Z,45.31
2019-05-01T12:13:27.055Z,44.20
2019-05-01T12:14:27.077Z,44.96
2019-05-01T12:15:27.039Z,45.84
2019-05-01T12:16:27.033Z,46.46
2019-05-01T12:17:27.035Z,46.46
2019-05-01T12:18:27.032Z,46.66
2019-05-01T12:19:27.005Z,46.01
2019-05-01T12:20:26.985Z,46.31
2019-05-01T12:21:26.971Z,47.11
2019-05-01T12:22:26.972Z,47.58
2019-05-01T12:23:26.962Z,46.56
2019-05-01T12:24:26.961Z,44.49
2019-05-01T12:25:26.948Z,44.67
2019-05-01T12:26:26.917Z,44.89
2019-05-01T12:27:26.938Z,43.77
2019-05-01T12:28:26.897Z,43.90
2019-05-01T12:29:26.911Z,43.59
2019-05-01T12:30:26.879Z,43.35
2019-05-01T12:31:26.899Z,43.23
2019-05-01T12:32:26.859Z,42.41
2019-05-01T12:33:26.862Z,41.99
2019-05-01T12:34:26.898Z,42.02
2019-05-01T12:35:26.832Z,42.10
2019-05-01T12:36:35.950Z,42.05
2019-05-01T12:37:27.830Z,40.22
2019-05-01T12:38:26.846Z,39.09
2019-05-01T12:39:26.810Z,39.09
2019-05-01T12:40:26.778Z,38.20
2019-05-01T12:41:26.790Z,39.34
2019-05-01T12:42:26.776Z,40.36
2019-05-01T12:43:26.773Z,39.74
2019-05-01T12:44:26.770Z,39.72
2019-05-01T12:45:26.740Z,39.54
2019-05-01T12:46:26.729Z,39.74
2019-05-01T12:47:26.725Z,39.40
2019-05-01T12:48:26.734Z,38.06
2019-05-01T12:49:26.740Z,38.20
2019-05-01T12:50:26.689Z,37.38
2019-05-01T12:51:26.669Z,39.32
2019-05-01T12:52:26.663Z,39.34
2019-05-01T12:53:26.649Z,39.86
2019-05-01T12:54:26.653Z,42.24
2019-05-01T12:55:26.628Z,43.57
2019-05-01T12:56:26.622Z,43.82
2019-05-01T12:57:26.604Z,44.88
2019-05-01T12:58:26.600Z,44.20